Time;durP1;ratioP1;P1;durP2;ratioP2;P2;SDS_P1;SDS_P2;PMS_P1;PMS_P2;Temp;Humidity;BMP_temperature;BMP_pressure;BME280_temperature;BME280_humidity;BME280_pressure;Samples;Min_cycle;Max_cycle;Signal;HPM_P1;HPM_P2
2023/03/08 00:01:21;;;;;;;15.37;8.67;;;-0.10;99.90;;;;;;5029709;28;20401;-86
2023/03/08 00:03:46;;;;;;;18.02;8.95;;;-0.10;99.90;;;;;;5035454;28;20421;-86
2023/03/08 00:06:14;;;;;;;14.55;8.20;;;-0.10;99.90;;;;;;5031024;28;20377;-86
2023/03/08 00:08:41;;;;;;;13.32;7.28;;;-0.10;99.90;;;;;;5029378;28;20373;-85
2023/03/08 00:11:09;;;;;;;13.27;7.80;;;0.00;99.90;;;;;;5030605;28;20397;-85
2023/03/08 00:13:35;;;;;;;14.32;9.32;;;0.00;99.90;;;;;;5028632;28;20382;-86
2023/03/08 00:16:04;;;;;;;13.93;8.38;;;0.00;99.90;;;;;;5029238;28;20382;-85
2023/03/08 00:18:30;;;;;;;16.98;10.10;;;0.00;99.90;;;;;;5029065;28;20378;-86
2023/03/08 00:21:00;;;;;;;14.95;9.90;;;0.00;99.90;;;;;;5031165;28;20417;-85
2023/03/08 00:23:26;;;;;;;15.13;9.60;;;0.00;99.90;;;;;;5032430;28;20385;-85
2023/03/08 00:25:53;;;;;;;17.42;10.43;;;-0.10;99.90;;;;;;5015241;28;20382;-86
2023/03/08 00:28:18;;;;;;;16.92;10.35;;;-0.20;99.90;;;;;;5012029;28;20414;-85
2023/03/08 00:30:44;;;;;;;21.07;11.10;;;-0.20;99.90;;;;;;5011500;28;20403;-86
2023/03/08 00:33:10;;;;;;;17.17;10.90;;;-0.10;99.90;;;;;;5012535;28;20421;-85
2023/03/08 00:35:35;;;;;;;16.63;10.90;;;-0.20;99.90;;;;;;5016042;28;20468;-85
2023/03/08 00:38:01;;;;;;;16.17;10.90;;;-0.10;99.90;;;;;;5028930;28;20460;-85
2023/03/08 00:40:27;;;;;;;16.38;10.00;;;-0.20;99.90;;;;;;5032570;28;20895;-85
2023/03/08 00:42:52;;;;;;;13.57;9.68;;;-0.20;99.90;;;;;;5033034;28;20436;-85
2023/03/08 00:45:18;;;;;;;14.73;9.75;;;0.00;99.90;;;;;;5032242;28;20431;-85
2023/03/08 00:47:44;;;;;;;17.63;9.90;;;-0.10;99.90;;;;;;5029778;28;20471;-84
2023/03/08 00:50:10;;;;;;;14.03;9.93;;;-0.10;99.90;;;;;;5030375;28;20389;-84
2023/03/08 00:52:35;;;;;;;13.27;9.52;;;-0.10;99.90;;;;;;5031195;28;20377;-85
2023/03/08 00:55:01;;;;;;;13.40;9.50;;;-0.10;99.90;;;;;;5030436;28;20378;-85
2023/03/08 00:57:27;;;;;;;15.70;10.23;;;-0.20;99.90;;;;;;5029225;28;20401;-84
2023/03/08 00:59:52;;;;;;;13.03;9.70;;;-0.20;99.90;;;;;;5031571;28;20405;-85
2023/03/08 01:02:18;;;;;;;16.97;10.93;;;-0.20;99.90;;;;;;5030861;28;20417;-85
2023/03/08 01:04:44;;;;;;;17.23;10.63;;;-0.10;99.90;;;;;;5031316;28;20417;-84
2023/03/08 01:07:10;;;;;;;14.87;10.63;;;-0.10;99.90;;;;;;5032302;28;20386;-84
2023/03/08 01:09:35;;;;;;;14.57;10.53;;;-0.20;99.90;;;;;;5029133;28;20521;-85
2023/03/08 01:14:34;;;;;;;18.13;11.85;;;-0.30;99.90;;;;;;5008632;28;20832;-85
2023/03/08 01:16:59;;;;;;;15.73;11.40;;;-0.30;99.90;;;;;;5011580;28;20398;-85
2023/03/08 01:19:25;;;;;;;13.20;11.05;;;-0.30;99.90;;;;;;5011579;28;20467;-86
2023/03/08 01:21:52;;;;;;;16.25;11.82;;;-0.20;99.90;;;;;;5011427;28;20403;-86
2023/03/08 01:24:18;;;;;;;17.58;12.23;;;-0.30;99.90;;;;;;5010440;28;20772;-86
2023/03/08 01:26:43;;;;;;;16.52;12.43;;;-0.40;99.90;;;;;;5010063;28;20391;-85
2023/03/08 01:29:09;;;;;;;15.82;12.30;;;-0.30;99.90;;;;;;5003791;28;20389;-86
2023/03/08 01:31:35;;;;;;;17.00;13.13;;;-0.30;99.90;;;;;;4992888;28;20383;-85
2023/03/08 01:34:01;;;;;;;18.15;12.57;;;-0.40;99.90;;;;;;4992734;28;20860;-85
2023/03/08 01:36:27;;;;;;;16.92;13.27;;;-0.40;99.90;;;;;;4992233;28;20384;-84
2023/03/08 01:38:54;;;;;;;18.02;13.35;;;-0.40;99.90;;;;;;4991421;28;20380;-85
2023/03/08 01:41:25;;;;;;;16.48;12.68;;;-0.50;99.90;;;;;;4997969;28;20415;-85
2023/03/08 01:43:52;;;;;;;17.98;12.98;;;-0.30;99.90;;;;;;5009935;28;20379;-84
2023/03/08 01:46:31;;;;;;;17.33;12.57;;;-0.40;99.90;;;;;;5011500;28;20387;-84
2023/03/08 01:49:21;;;;;;;19.35;13.50;;;-0.40;99.90;;;;;;5011629;28;20965;-85
2023/03/08 01:52:01;;;;;;;19.58;13.60;;;-0.50;99.90;;;;;;5009816;28;20403;-85
2023/03/08 01:54:34;;;;;;;16.98;13.20;;;-0.50;99.90;;;;;;5010227;28;20387;-85
2023/03/08 01:57:07;;;;;;;18.05;14.20;;;-0.40;99.90;;;;;;5010776;28;20471;-85
2023/03/08 01:59:34;;;;;;;20.27;14.65;;;-0.50;99.90;;;;;;5016977;28;20474;-86
2023/03/08 02:02:01;;;;;;;21.13;14.88;;;-0.50;99.90;;;;;;5011775;28;20509;-86
2023/03/08 02:04:27;;;;;;;20.02;15.50;;;-0.50;99.90;;;;;;5011245;28;20375;-85
2023/03/08 02:06:53;;;;;;;21.80;15.83;;;-0.60;99.90;;;;;;5011142;28;20519;-84
2023/03/08 02:09:19;;;;;;;23.60;15.70;;;-0.70;99.90;;;;;;5010102;28;20498;-84
2023/03/08 02:11:47;;;;;;;25.33;16.38;;;-0.70;99.90;;;;;;5009924;28;20905;-84
2023/03/08 02:14:12;;;;;;;23.40;15.23;;;-0.70;99.90;;;;;;5010787;28;20508;-84
2023/03/08 02:16:38;;;;;;;21.37;16.23;;;-0.80;99.90;;;;;;5008030;28;20800;-85
2023/03/08 02:19:12;;;;;;;20.40;15.37;;;-0.70;99.90;;;;;;4993136;28;20455;-84
2023/03/08 02:21:38;;;;;;;19.73;14.77;;;-0.60;99.90;;;;;;4991218;28;20731;-85
2023/03/08 02:24:15;;;;;;;20.05;14.98;;;-0.60;99.90;;;;;;5003515;28;20411;-85
2023/03/08 02:26:42;;;;;;;20.87;15.20;;;-0.60;99.90;;;;;;4999274;28;20480;-86
2023/03/08 02:29:08;;;;;;;27.42;16.27;;;-0.70;99.90;;;;;;5009895;28;20435;-85
2023/03/08 02:31:33;;;;;;;21.73;15.55;;;-0.70;99.90;;;;;;5008494;28;20419;-86
2023/03/08 02:33:59;;;;;;;20.92;15.55;;;-0.70;99.90;;;;;;5008879;28;22262;-85
2023/03/08 02:36:25;;;;;;;21.60;16.35;;;-0.80;99.90;;;;;;5009280;28;20403;-85
2023/03/08 02:38:50;;;;;;;22.73;16.58;;;-0.70;99.90;;;;;;5009405;28;20873;-85
2023/03/08 02:41:16;;;;;;;22.02;16.08;;;-0.60;99.90;;;;;;5008766;28;20441;-85
2023/03/08 02:43:42;;;;;;;24.70;16.45;;;-0.40;99.90;;;;;;5010615;28;20450;-85
2023/03/08 02:46:11;;;;;;;25.67;17.03;;;-0.60;99.90;;;;;;5008067;28;20490;-85
2023/03/08 02:48:37;;;;;;;21.80;16.43;;;-0.50;99.90;;;;;;4998115;28;20383;-86
2023/03/08 02:51:03;;;;;;;23.23;16.90;;;-0.40;99.90;;;;;;4994783;28;20400;-86
2023/03/08 02:53:29;;;;;;;24.23;17.33;;;-0.50;99.90;;;;;;4988436;28;20381;-85
2023/03/08 02:55:54;;;;;;;23.70;16.83;;;-0.40;99.90;;;;;;5008985;28;20387;-86
2023/03/08 02:58:20;;;;;;;22.73;16.33;;;-0.40;99.90;;;;;;5008942;28;20845;-85
2023/03/08 03:00:46;;;;;;;27.97;17.27;;;-0.40;99.90;;;;;;5009081;28;20470;-85
2023/03/08 03:03:12;;;;;;;23.37;17.37;;;-0.40;99.90;;;;;;5006994;28;20440;-85
2023/03/08 03:05:42;;;;;;;21.80;16.50;;;-0.30;99.90;;;;;;5009031;28;20921;-85
2023/03/08 03:08:09;;;;;;;22.65;16.75;;;-0.40;99.90;;;;;;4995631;28;20410;-84
2023/03/08 03:10:36;;;;;;;24.63;17.45;;;-0.50;99.90;;;;;;4986927;28;20442;-85
2023/03/08 03:13:03;;;;;;;22.65;17.65;;;-0.50;99.90;;;;;;4984159;28;21385;-85
2023/03/08 03:15:29;;;;;;;22.13;17.60;;;-0.60;99.90;;;;;;4978362;28;20412;-84
2023/03/08 03:17:55;;;;;;;21.58;17.35;;;-0.40;99.90;;;;;;4983489;28;20399;-85
2023/03/08 03:20:21;;;;;;;20.15;17.23;;;-0.40;99.90;;;;;;4983873;28;20427;-84
2023/03/08 03:22:47;;;;;;;26.58;17.63;;;-0.30;99.90;;;;;;4984220;28;20920;-85
2023/03/08 03:25:13;;;;;;;24.20;18.02;;;-0.20;99.90;;;;;;4984650;28;20390;-84
2023/03/08 03:27:38;;;;;;;29.92;18.15;;;-0.40;99.90;;;;;;4997508;28;20407;-84
2023/03/08 03:30:07;;;;;;;23.90;18.00;;;-0.40;99.90;;;;;;4983378;28;20402;-84
2023/03/08 03:32:33;;;;;;;23.85;17.73;;;-0.60;99.90;;;;;;4985765;28;20439;-84
2023/03/08 03:34:59;;;;;;;25.42;18.48;;;-0.60;99.90;;;;;;4991707;28;20430;-84
2023/03/08 03:37:25;;;;;;;25.52;18.83;;;-0.60;99.90;;;;;;5006571;28;20966;-83
2023/03/08 03:39:51;;;;;;;23.23;17.42;;;-0.80;99.90;;;;;;5006456;28;20419;-84
2023/03/08 03:42:17;;;;;;;23.92;18.52;;;-0.80;99.90;;;;;;5006312;28;20508;-84
2023/03/08 03:44:43;;;;;;;24.13;18.92;;;-0.90;99.90;;;;;;5008066;28;20375;-84
2023/03/08 03:47:09;;;;;;;24.52;18.92;;;-0.90;99.90;;;;;;5005780;28;20411;-84
2023/03/08 03:49:35;;;;;;;26.98;18.42;;;-0.90;99.90;;;;;;5006711;28;20417;-82
2023/03/08 03:52:01;;;;;;;26.73;18.27;;;-1.00;99.90;;;;;;5006380;28;20758;-83
2023/03/08 03:54:27;;;;;;;23.65;17.85;;;-1.00;99.90;;;;;;5017828;28;20377;-83
2023/03/08 03:56:56;;;;;;;24.85;18.83;;;-1.10;99.90;;;;;;5022028;28;20850;-83
2023/03/08 03:59:23;;;;;;;26.10;18.75;;;-1.00;99.90;;;;;;5005485;28;20406;-82
2023/03/08 04:01:49;;;;;;;27.25;18.25;;;-1.00;99.90;;;;;;5006409;28;20419;-84
2023/03/08 04:04:15;;;;;;;23.50;18.27;;;-0.90;99.90;;;;;;5007191;28;20422;-84
2023/03/08 04:06:40;;;;;;;23.20;18.63;;;-0.90;99.90;;;;;;5006679;28;20506;-84
2023/03/08 04:09:11;;;;;;;26.90;18.27;;;-0.80;99.90;;;;;;4994624;28;20888;-84
2023/03/08 04:11:38;;;;;;;24.10;18.77;;;-0.90;99.90;;;;;;4998267;28;20395;-84
2023/03/08 04:14:04;;;;;;;26.80;18.27;;;-0.80;99.90;;;;;;5008416;28;20401;-83
2023/03/08 04:16:35;;;;;;;26.52;19.23;;;-0.70;99.90;;;;;;5003750;28;21072;-84
2023/03/08 04:19:06;;;;;;;23.45;17.90;;;-0.90;99.90;;;;;;4991095;28;20395;-83
2023/03/08 04:21:33;;;;;;;30.25;19.02;;;-1.00;99.90;;;;;;4991228;28;20497;-84
2023/03/08 04:23:59;;;;;;;25.85;19.45;;;-1.10;99.90;;;;;;4991880;28;20855;-84
2023/03/08 04:26:25;;;;;;;24.38;18.80;;;-1.20;99.90;;;;;;5002995;28;20421;-84
2023/03/08 04:28:51;;;;;;;25.08;18.98;;;-1.10;99.90;;;;;;5011792;28;20457;-84
2023/03/08 04:31:20;;;;;;;23.70;18.73;;;-1.10;99.90;;;;;;5013609;28;20469;-84
2023/03/08 04:33:48;;;;;;;28.25;20.30;;;-1.10;99.90;;;;;;5009260;28;20383;-84
2023/03/08 04:36:15;;;;;;;29.98;20.75;;;-1.30;99.90;;;;;;5017242;28;20390;-83
2023/03/08 04:38:41;;;;;;;24.20;19.98;;;-1.30;99.90;;;;;;5012016;28;20386;-83
2023/03/08 04:41:13;;;;;;;25.73;20.40;;;-1.30;99.90;;;;;;5011606;28;20429;-83
2023/03/08 04:43:43;;;;;;;28.73;20.83;;;-1.10;99.90;;;;;;5010491;28;20457;-83
2023/03/08 04:46:09;;;;;;;26.58;19.50;;;-1.30;99.90;;;;;;5010911;28;20379;-83
2023/03/08 04:48:35;;;;;;;28.70;21.27;;;-1.30;99.90;;;;;;5011047;28;20381;-84
2023/03/08 04:51:03;;;;;;;26.95;20.40;;;-1.50;99.90;;;;;;5009405;28;20453;-84
2023/03/08 04:53:30;;;;;;;29.30;20.57;;;-1.50;99.90;;;;;;5010149;28;20386;-84
2023/03/08 04:55:59;;;;;;;28.23;21.10;;;-1.50;99.90;;;;;;5011306;28;20858;-85
2023/03/08 04:58:26;;;;;;;27.05;20.40;;;-1.50;99.90;;;;;;5009334;28;21234;-84
2023/03/08 05:00:51;;;;;;;26.65;20.48;;;-1.60;99.90;;;;;;5009541;28;20407;-84
2023/03/08 05:03:17;;;;;;;29.00;20.15;;;-1.60;99.90;;;;;;4995885;28;20466;-84
2023/03/08 05:05:48;;;;;;;30.00;21.23;;;-1.60;99.90;;;;;;5010921;28;20867;-84
2023/03/08 05:08:14;;;;;;;28.70;20.75;;;-1.60;99.90;;;;;;5014179;28;20421;-84
2023/03/08 05:10:47;;;;;;;29.45;21.60;;;-1.70;99.90;;;;;;5009036;28;20882;-84
2023/03/08 05:13:13;;;;;;;29.88;20.38;;;-1.80;99.90;;;;;;5009373;28;20410;-83
2023/03/08 05:15:38;;;;;;;27.92;20.65;;;-1.80;99.90;;;;;;5009193;28;20896;-83
2023/03/08 05:18:04;;;;;;;32.07;22.10;;;-1.80;99.90;;;;;;5009451;28;20431;-83
2023/03/08 05:20:30;;;;;;;28.57;21.97;;;-1.90;99.90;;;;;;5009422;28;20411;-84
2023/03/08 05:22:56;;;;;;;28.50;20.98;;;-1.90;99.90;;;;;;5008779;28;20493;-84
2023/03/08 05:25:22;;;;;;;29.65;21.33;;;-2.00;99.90;;;;;;5008311;28;20457;-83
2023/03/08 05:27:47;;;;;;;30.73;22.00;;;-2.00;99.90;;;;;;4998215;28;20392;-82
2023/03/08 05:30:13;;;;;;;33.38;23.50;;;-2.00;99.90;;;;;;4989629;28;20432;-83
2023/03/08 05:32:39;;;;;;;37.53;24.88;;;-2.00;99.90;;;;;;5009258;28;20375;-84
2023/03/08 05:35:05;;;;;;;34.90;25.02;;;-2.20;99.90;;;;;;5010263;28;20383;-84
2023/03/08 05:37:31;;;;;;;41.63;30.25;;;-2.30;99.90;;;;;;5008850;28;20399;-84
2023/03/08 05:39:56;;;;;;;39.07;28.50;;;-2.30;99.90;;;;;;5010281;28;20406;-83
2023/03/08 05:42:22;;;;;;;35.80;25.80;;;-2.10;99.90;;;;;;5007920;28;20399;-84
2023/03/08 05:44:48;;;;;;;45.40;32.37;;;-2.00;99.90;;;;;;4992213;28;20510;-84
2023/03/08 05:47:13;;;;;;;45.57;33.00;;;-1.90;99.90;;;;;;4990074;28;20614;-85
2023/03/08 05:49:39;;;;;;;44.53;31.77;;;-1.90;99.90;;;;;;4990697;28;20410;-84
2023/03/08 05:52:05;;;;;;;42.07;31.83;;;-1.90;99.90;;;;;;4990197;28;20413;-84
2023/03/08 05:54:31;;;;;;;38.87;28.73;;;-1.90;99.90;;;;;;4989143;28;21583;-84
2023/03/08 05:56:56;;;;;;;38.37;27.53;;;-1.80;99.90;;;;;;4990352;28;20926;-84
2023/03/08 05:59:22;;;;;;;35.23;25.37;;;-1.80;99.90;;;;;;4989429;28;20389;-84
2023/03/08 06:01:48;;;;;;;33.57;24.80;;;-1.70;99.90;;;;;;4989061;28;20412;-84
2023/03/08 06:04:13;;;;;;;34.85;25.13;;;-1.70;99.90;;;;;;4990665;28;21030;-84
2023/03/08 06:06:39;;;;;;;31.97;24.50;;;-1.80;99.90;;;;;;4990157;28;20393;-85
2023/03/08 06:09:05;;;;;;;34.83;25.80;;;-1.80;99.90;;;;;;4990494;28;20381;-85
2023/03/08 06:11:31;;;;;;;32.00;24.23;;;-1.70;99.90;;;;;;4989444;28;20879;-85
2023/03/08 06:13:57;;;;;;;35.67;25.00;;;-1.60;99.90;;;;;;4990779;28;20400;-86
2023/03/08 06:16:22;;;;;;;31.07;22.43;;;-1.30;99.90;;;;;;4988085;28;20393;-85
2023/03/08 06:18:48;;;;;;;30.73;22.17;;;-1.20;99.90;;;;;;5000819;28;20380;-84
2023/03/08 06:21:18;;;;;;;25.50;20.23;;;-0.90;99.90;;;;;;5000910;28;20457;-85
2023/03/08 06:23:45;;;;;;;25.70;19.87;;;-1.00;99.90;;;;;;4998911;28;20539;-86
2023/03/08 06:26:12;;;;;;;25.48;20.20;;;-1.00;99.90;;;;;;4989556;28;20408;-85
2023/03/08 06:28:41;;;;;;;26.73;20.88;;;-0.70;99.90;;;;;;4988372;28;20381;-86
2023/03/08 06:31:10;;;;;;;21.02;18.50;;;-0.70;99.90;;;;;;4989260;28;20404;-84
2023/03/08 06:33:36;;;;;;;22.38;17.75;;;-0.80;99.90;;;;;;4988043;28;20729;-85
2023/03/08 06:36:09;;;;;;;19.58;16.77;;;-0.70;99.90;;;;;;4987743;28;20393;-84
2023/03/08 06:38:37;;;;;;;21.42;17.88;;;-0.50;99.90;;;;;;4988484;28;20385;-84
2023/03/08 06:41:04;;;;;;;22.23;17.40;;;-0.30;99.90;;;;;;4988934;28;20516;-84
2023/03/08 06:43:36;;;;;;;21.77;16.43;;;-0.10;99.90;;;;;;4986420;28;20389;-84
2023/03/08 06:46:11;;;;;;;21.40;15.75;;;-0.10;99.90;;;;;;4987044;28;20395;-84
2023/03/08 06:48:37;;;;;;;20.02;16.85;;;0.00;99.90;;;;;;4987480;28;20385;-84
2023/03/08 06:51:04;;;;;;;19.40;15.88;;;0.10;99.90;;;;;;4993769;28;20472;-87
2023/03/08 06:53:37;;;;;;;17.60;15.65;;;0.20;99.90;;;;;;4994007;28;20496;-86
2023/03/08 06:56:13;;;;;;;18.38;16.00;;;0.30;99.90;;;;;;4995757;28;20489;-85
2023/03/08 06:58:39;;;;;;;17.92;15.30;;;0.50;99.90;;;;;;4993059;28;20389;-87
2023/03/08 07:01:15;;;;;;;17.52;15.10;;;0.50;99.90;;;;;;4988512;28;20496;-85
2023/03/08 07:03:52;;;;;;;18.15;15.02;;;0.60;99.90;;;;;;4990866;28;20476;-84
2023/03/08 07:06:18;;;;;;;15.43;13.80;;;0.70;99.90;;;;;;4989833;28;20408;-85
2023/03/08 07:08:47;;;;;;;17.30;14.50;;;0.70;99.90;;;;;;4988725;28;20489;-86
2023/03/08 07:11:12;;;;;;;16.40;14.63;;;0.90;99.90;;;;;;4988230;28;20478;-85
2023/03/08 07:13:42;;;;;;;16.43;14.00;;;1.00;99.90;;;;;;4988641;28;20433;-84
2023/03/08 07:16:10;;;;;;;17.25;13.93;;;1.20;99.90;;;;;;4993821;28;20414;-85
2023/03/08 07:18:36;;;;;;;15.63;14.02;;;1.40;99.90;;;;;;4987489;28;20396;-85
2023/03/08 07:21:05;;;;;;;17.92;14.85;;;1.40;99.90;;;;;;4988903;28;20511;-85
2023/03/08 07:23:30;;;;;;;18.60;16.60;;;1.40;99.90;;;;;;4988161;28;20393;-85
2023/03/08 07:25:56;;;;;;;25.30;20.10;;;1.40;99.90;;;;;;4986868;28;20408;-83
2023/03/08 07:28:25;;;;;;;21.63;17.88;;;1.30;99.90;;;;;;4987097;28;20416;-83
2023/03/08 07:30:52;;;;;;;16.55;14.77;;;1.50;99.90;;;;;;4989316;28;20868;-84
2023/03/08 07:33:20;;;;;;;21.63;17.90;;;1.80;99.90;;;;;;4998176;28;20399;-84
2023/03/08 07:35:45;;;;;;;28.27;23.40;;;2.00;99.90;;;;;;5011723;28;21008;-82
2023/03/08 07:38:12;;;;;;;32.17;24.67;;;2.00;99.90;;;;;;5010843;28;20375;-84
2023/03/08 07:40:40;;;;;;;17.77;15.88;;;2.20;99.90;;;;;;5009996;28;20418;-84
2023/03/08 07:43:06;;;;;;;15.23;12.80;;;2.40;99.90;;;;;;5008786;28;20462;-85
2023/03/08 07:45:32;;;;;;;16.48;14.77;;;2.70;99.90;;;;;;5009175;28;20458;-83
2023/03/08 07:47:59;;;;;;;16.00;14.40;;;2.90;99.90;;;;;;5007591;28;20383;-83
2023/03/08 07:50:25;;;;;;;12.98;11.52;;;3.10;99.90;;;;;;5008159;28;20845;-83
2023/03/08 07:52:51;;;;;;;13.05;10.35;;;2.90;99.90;;;;;;5007907;28;20382;-84
2023/03/08 07:58:45;;;;;;;;;;;;;;;;;;;;;
2023/03/08 08:01:22;;;;;;;11.43;10.03;;;4.00;99.90;;;;;;5007636;28;20411;-88
2023/03/08 08:04:21;;;;;;;;;;;;;;;;;;;;;
2023/03/08 08:07:51;;;;;;;10.13;9.10;;;4.10;99.90;;;;;;5006342;28;20410;-86
2023/03/08 08:13:49;;;;;;;11.63;9.90;;;3.60;99.90;;;;;;4988070;28;20401;-85
2023/03/08 08:16:15;;;;;;;11.10;9.95;;;3.80;99.90;;;;;;5022116;28;20417;-85
2023/03/08 08:18:41;;;;;;;10.80;9.70;;;4.50;99.90;;;;;;5026951;28;20467;-86
2023/03/08 08:21:13;;;;;;;13.52;11.10;;;4.60;99.90;;;;;;5025931;28;20464;-85
2023/03/08 08:24:03;;;;;;;;;;;;;;;;;;;;;
2023/03/08 08:26:29;;;;;;;11.90;10.70;;;4.60;99.90;;;;;;5026996;28;20401;-86
2023/03/08 08:28:55;;;;;;;13.05;11.07;;;4.70;99.90;;;;;;5026498;28;20980;-86
2023/03/08 08:33:06;;;;;;;;;;;;;;;;;;;;;
2023/03/08 08:35:29;;;;;;;11.43;10.23;;;4.80;99.90;;;;;;5018316;28;20493;-85
2023/03/08 08:41:34;;;;;;;11.15;10.00;;;4.60;99.90;;;;;;5023111;28;20796;-86
2023/03/08 08:44:49;;;;;;;8.30;7.40;;;5.10;99.90;;;;;;5027985;28;20381;-85
2023/03/08 08:47:49;;;;;;;9.27;8.27;;;5.00;99.90;;;;;;5029257;28;20390;-85
2023/03/08 08:50:25;;;;;;;;;;;;;;;;;;;;;
2023/03/08 08:56:14;;;;;;;;;;;;;;;;;;;;;
2023/03/08 08:58:47;;;;;;;9.32;8.13;;;5.40;99.90;;;;;;4988174;28;20385;-85
2023/03/08 09:01:48;;;;;;;;;;;;;;;;;;;;;
2023/03/08 09:07:46;;;;;;;8.73;7.88;;;5.00;99.90;;;;;;4996674;28;20423;-86
2023/03/08 09:10:39;;;;;;;10.15;8.73;;;5.20;99.90;;;;;;5008442;28;20747;-85
2023/03/08 09:13:28;;;;;;;9.35;7.90;;;5.40;99.90;;;;;;5009966;28;20403;-84
2023/03/08 09:15:53;;;;;;;9.05;7.80;;;5.50;99.90;;;;;;5008815;28;20508;-86
2023/03/08 09:18:28;;;;;;;9.00;7.68;;;5.60;99.90;;;;;;5007518;28;20411;-86
2023/03/08 09:21:27;;;;;;;10.43;8.85;;;5.20;99.90;;;;;;5015483;28;20398;-85
2023/03/08 09:24:09;;;;;;;10.30;8.77;;;4.90;99.90;;;;;;5007024;28;20838;-85
2023/03/08 09:29:44;;;;;;;9.00;8.10;;;5.50;99.90;;;;;;5005521;28;20405;-83
2023/03/08 09:32:09;;;;;;;10.60;8.70;;;5.40;99.90;;;;;;5008566;28;20394;-85
2023/03/08 09:34:44;;;;;;;9.02;8.00;;;4.70;99.90;;;;;;5009181;28;20753;-84
2023/03/08 09:37:21;;;;;;;9.82;8.43;;;4.90;99.90;;;;;;4993744;28;20387;-85
2023/03/08 09:40:36;;;;;;;9.18;7.82;;;5.20;99.90;;;;;;5010134;28;20463;-85
2023/03/08 09:43:29;;;;;;;8.52;6.70;;;5.40;99.90;;;;;;4922897;28;20408;-88
2023/03/08 09:46:13;;;;;;;7.22;6.53;;;5.80;99.90;;;;;;4915680;28;20476;-86
2023/03/08 09:49:05;;;;;;;;;;;;;;;;;;;;;
2023/03/08 09:52:01;;;;;;;;;;;;;;;;;;;;;
2023/03/08 09:54:37;;;;;;;8.88;6.78;;;6.00;99.90;;;;;;4999545;28;20390;-89
2023/03/08 09:57:35;;;;;;;10.23;8.43;;;6.20;99.90;;;;;;5014193;28;20395;-87
2023/03/08 10:00:09;;;;;;;7.63;6.37;;;6.80;99.90;;;;;;4992470;28;20452;-85
2023/03/08 10:02:40;;;;;;;7.63;5.60;;;8.00;99.90;;;;;;5005992;28;20743;-83
2023/03/08 10:05:11;;;;;;;7.03;5.63;;;7.60;99.90;;;;;;5001065;28;20435;-84
2023/03/08 10:08:06;;;;;;;6.80;5.30;;;7.50;99.90;;;;;;4991049;28;20415;-84
2023/03/08 10:10:55;;;;;;;7.03;4.97;;;8.40;99.90;;;;;;5004668;28;20420;-84
2023/03/08 10:13:33;;;;;;;5.13;4.63;;;9.10;99.90;;;;;;4997851;28;20419;-85
2023/03/08 10:16:14;;;;;;;5.22;4.70;;;9.20;99.90;;;;;;5036174;28;20387;-84
2023/03/08 10:18:49;;;;;;;5.32;4.72;;;8.40;99.90;;;;;;5002559;28;20724;-82
2023/03/08 10:21:18;;;;;;;5.47;4.95;;;7.70;99.90;;;;;;5003771;28;20412;-83
2023/03/08 10:23:47;;;;;;;5.15;4.65;;;8.10;99.90;;;;;;5001195;28;20369;-83
2023/03/08 10:26:27;;;;;;;6.45;5.60;;;7.70;99.90;;;;;;5006663;28;20387;-86
2023/03/08 10:29:03;;;;;;;7.77;6.57;;;7.20;99.90;;;;;;4995691;28;20768;-87
2023/03/08 10:31:47;;;;;;;7.05;6.35;;;6.90;99.90;;;;;;4999797;28;20404;-86
2023/03/08 10:34:23;;;;;;;10.20;7.00;;;6.40;99.90;;;;;;4998330;28;20396;-84
2023/03/08 10:36:57;;;;;;;7.15;6.45;;;;;;;;;;5005825;28;20379;-84
2023/03/08 10:40:05;;;;;;;;;;;;;;;;;;;;;
2023/03/08 10:42:34;;;;;;;7.03;6.30;;;5.60;99.90;;;;;;5009022;28;20422;-85
2023/03/08 10:45:20;;;;;;;8.90;6.85;;;6.10;99.90;;;;;;5014574;28;20372;-83
2023/03/08 10:48:18;;;;;;;6.95;6.07;;;6.50;99.90;;;;;;5007531;28;20409;-84
2023/03/08 10:50:44;;;;;;;7.03;6.30;;;6.30;99.90;;;;;;5005890;28;20379;-83
2023/03/08 10:53:16;;;;;;;7.60;6.23;;;6.50;99.90;;;;;;5008136;28;20896;-84
2023/03/08 10:55:45;;;;;;;7.10;6.03;;;6.60;99.90;;;;;;5007804;28;20458;-84
2023/03/08 10:58:30;;;;;;;7.22;6.38;;;6.70;99.90;;;;;;5006649;28;20407;-84
2023/03/08 11:00:59;;;;;;;8.23;6.75;;;5.70;99.90;;;;;;5009928;28;20465;-84
2023/03/08 11:03:29;;;;;;;8.07;7.10;;;6.00;99.90;;;;;;5010301;28;20464;-84
2023/03/08 11:06:01;;;;;;;6.72;6.03;;;5.80;99.90;;;;;;5013089;28;20527;-84
2023/03/08 11:08:33;;;;;;;7.78;6.53;;;6.20;99.90;;;;;;5008992;28;20411;-84
2023/03/08 11:11:08;;;;;;;7.28;5.80;;;5.70;99.90;;;;;;5006134;28;20379;-84
2023/03/08 11:13:54;;;;;;;6.68;6.07;;;6.10;99.90;;;;;;5007635;28;20392;-84
2023/03/08 11:16:55;;;;;;;6.68;6.05;;;6.40;99.90;;;;;;5009997;28;20885;-84
2023/03/08 11:19:59;;;;;;;7.63;6.82;;;6.10;99.90;;;;;;5010036;28;20477;-82
2023/03/08 11:22:40;;;;;;;6.65;6.05;;;5.70;99.90;;;;;;5011723;28;20407;-85
2023/03/08 11:25:31;;;;;;;6.95;5.90;;;6.10;99.90;;;;;;5009092;28;20403;-87
2023/03/08 11:28:11;;;;;;;6.65;6.05;;;5.90;99.90;;;;;;5009298;28;20411;-85
2023/03/08 11:30:59;;;;;;;8.52;6.25;;;5.90;99.90;;;;;;5012026;28;20418;-86
2023/03/08 11:33:46;;;;;;;6.40;5.80;;;5.80;99.90;;;;;;5011889;28;20387;-85
2023/03/08 11:36:31;;;;;;;7.32;6.18;;;5.60;99.90;;;;;;5012003;28;20407;-87
2023/03/08 11:39:31;;;;;;;6.75;6.15;;;5.80;99.90;;;;;;4999517;28;20467;-87
2023/03/08 11:46:16;;;;;;;6.47;4.93;;;6.30;99.90;;;;;;4938709;28;20394;-86
2023/03/08 11:48:56;;;;;;;7.57;4.65;;;6.00;99.90;;;;;;4965904;28;20893;-86
2023/03/08 11:52:16;;;;;;;;;;;;;;;;;;;;;
2023/03/08 11:55:28;;;;;;;4.97;4.47;;;6.50;99.90;;;;;;4987775;28;20388;-86
2023/03/08 11:58:19;;;;;;;6.03;5.00;;;5.90;99.90;;;;;;4987923;28;20920;-87
2023/03/08 12:00:47;;;;;;;6.03;4.97;;;5.80;99.90;;;;;;4991777;28;20409;-85
2023/03/08 12:03:25;;;;;;;6.25;4.50;;;6.00;99.90;;;;;;4991554;28;20385;-87
2023/03/08 12:05:57;;;;;;;7.07;6.03;;;6.20;99.90;;;;;;4988484;28;20406;-87
2023/03/08 12:08:22;;;;;;;5.15;4.65;;;5.70;99.90;;;;;;4988383;28;20875;-86
2023/03/08 12:11:27;;;;;;;8.82;4.95;;;5.90;99.90;;;;;;4988623;28;20381;-87
2023/03/08 12:14:02;;;;;;;8.93;5.22;;;6.20;99.90;;;;;;5003923;28;20415;-87
2023/03/08 12:16:55;;;;;;;7.20;4.72;;;6.10;99.90;;;;;;5008367;28;20461;-88
2023/03/08 12:19:42;;;;;;;15.43;5.87;;;6.40;99.90;;;;;;5006908;28;20504;-87
2023/03/08 12:22:23;;;;;;;13.40;5.15;;;6.10;99.90;;;;;;4999390;28;20610;-87
2023/03/08 12:25:20;;;;;;;8.38;5.05;;;6.70;99.90;;;;;;4988159;28;20392;-86
2023/03/08 12:27:49;;;;;;;5.95;4.53;;;6.30;99.90;;;;;;4990783;28;20455;-88
2023/03/08 12:30:19;;;;;;;6.25;4.68;;;5.50;99.90;;;;;;4987978;28;20393;-88
2023/03/08 12:32:55;;;;;;;9.03;5.00;;;5.30;99.90;;;;;;4993958;28;20377;-88
2023/03/08 12:35:28;;;;;;;10.05;5.03;;;5.40;99.90;;;;;;4998039;28;20403;-86
2023/03/08 12:37:56;;;;;;;6.25;4.15;;;5.50;99.90;;;;;;5013123;28;20789;-86
2023/03/08 12:40:43;;;;;;;17.10;6.70;;;5.70;99.90;;;;;;5007314;28;20419;-84
2023/03/08 12:43:11;;;;;;;15.90;11.70;;;5.80;99.90;;;;;;4997815;28;20388;-85
2023/03/08 12:45:38;;;;;;;6.60;4.32;;;5.60;99.90;;;;;;5003051;28;20411;-86
2023/03/08 12:48:03;;;;;;;9.02;7.97;;;5.50;99.90;;;;;;5018104;28;20403;-84
2023/03/08 12:50:34;;;;;;;6.00;5.00;;;5.90;99.90;;;;;;5015712;28;20394;-85
2023/03/08 12:53:01;;;;;;;5.88;4.43;;;6.20;99.90;;;;;;5016436;28;20387;-84
2023/03/08 12:55:32;;;;;;;5.38;4.05;;;6.10;99.90;;;;;;5016596;28;20383;-85
2023/03/08 12:58:01;;;;;;;4.80;4.30;;;5.70;99.90;;;;;;5015082;28;20510;-85
2023/03/08 13:00:30;;;;;;;8.75;6.85;;;6.20;99.90;;;;;;5012137;28;20399;-87
2023/03/08 13:03:00;;;;;;;18.65;12.98;;;6.00;99.90;;;;;;5014369;28;20410;-87
2023/03/08 13:05:29;;;;;;;6.23;5.13;;;6.00;99.90;;;;;;5017202;28;20383;-85
2023/03/08 13:08:00;;;;;;;7.50;5.72;;;6.00;99.90;;;;;;5015308;28;20847;-84
2023/03/08 13:10:35;;;;;;;7.32;4.90;;;6.00;99.90;;;;;;5015125;28;20939;-86
2023/03/08 13:13:05;;;;;;;6.45;5.03;;;5.70;99.90;;;;;;5016771;28;20470;-85
2023/03/08 13:15:34;;;;;;;5.07;4.43;;;5.00;99.90;;;;;;5014895;28;20449;-84
2023/03/08 13:18:02;;;;;;;8.50;5.35;;;5.00;99.90;;;;;;5012204;28;20402;-84
2023/03/08 13:20:59;;;;;;;8.35;5.20;;;5.40;99.90;;;;;;5011352;28;20406;-82
2023/03/08 13:23:37;;;;;;;6.03;4.70;;;5.10;99.90;;;;;;5012500;28;20446;-84
2023/03/08 13:26:15;;;;;;;124.93;43.00;;;4.80;99.90;;;;;;5015745;28;20453;-86
2023/03/08 13:28:43;;;;;;;5.85;4.93;;;4.60;99.90;;;;;;5012965;28;20387;-83
2023/03/08 13:31:29;;;;;;;6.18;4.63;;;4.90;99.90;;;;;;5012831;28;20382;-84
